createdAt,value
2023-09-14T00:01:42.846Z,2.00
2023-09-14T00:04:12.551Z,2.03
2023-09-14T00:06:41.902Z,1.90
2023-09-14T00:09:12.892Z,1.95
2023-09-14T00:11:42.017Z,1.85
2023-09-14T00:14:11.454Z,2.55
2023-09-14T00:16:40.668Z,1.38
2023-09-14T00:19:10.811Z,2.25
2023-09-14T00:21:43.550Z,2.13
2023-09-14T00:24:15.344Z,2.78
2023-09-14T00:26:44.491Z,2.50
2023-09-14T00:29:13.976Z,1.60
2023-09-14T00:34:12.397Z,2.50
2023-09-14T00:39:13.661Z,2.40
2023-09-14T00:41:43.610Z,2.10
2023-09-14T00:44:13.364Z,2.40
2023-09-14T00:49:12.915Z,1.98
2023-09-14T00:51:42.421Z,2.53
2023-09-14T00:54:13.361Z,2.20
2023-09-14T00:56:42.738Z,2.05
2023-09-14T00:59:12.391Z,1.60
2023-09-14T01:01:41.770Z,2.58
2023-09-14T01:04:11.596Z,1.58
2023-09-14T01:06:41.233Z,2.58
2023-09-14T01:09:11.275Z,2.20
2023-09-14T01:11:41.790Z,1.90
2023-09-14T01:14:19.942Z,2.25
2023-09-14T01:16:56.502Z,1.90
2023-09-14T01:19:41.882Z,3.03
2023-09-14T01:22:24.698Z,1.55
2023-09-14T01:25:04.898Z,1.80
2023-09-14T01:27:36.449Z,1.70
2023-09-14T01:30:07.563Z,1.83
2023-09-14T01:32:36.860Z,1.75
2023-09-14T01:35:08.320Z,2.17
2023-09-14T01:37:37.896Z,1.67
2023-09-14T01:40:10.889Z,1.90
2023-09-14T01:42:42.467Z,1.85
2023-09-14T01:45:13.297Z,2.53
2023-09-14T01:47:42.878Z,1.77
2023-09-14T01:50:12.520Z,1.80
2023-09-14T01:52:42.097Z,1.80
2023-09-14T01:55:14.163Z,1.88
2023-09-14T01:57:45.066Z,1.45
2023-09-14T02:00:14.933Z,2.15
2023-09-14T02:02:45.402Z,1.80
2023-09-14T02:05:14.946Z,1.48
2023-09-14T02:07:44.548Z,1.65
2023-09-14T02:10:14.822Z,1.13
2023-09-14T02:12:46.342Z,1.23
2023-09-14T02:15:16.103Z,1.38
2023-09-14T02:17:45.399Z,1.60
2023-09-14T02:20:18.317Z,1.75
2023-09-14T02:22:47.579Z,1.50
2023-09-14T02:25:17.115Z,1.73
2023-09-14T02:27:48.475Z,1.73
2023-09-14T02:33:59.786Z,1.80
2023-09-14T02:36:29.218Z,1.95
2023-09-14T02:38:59.083Z,1.92
2023-09-14T02:41:28.619Z,1.60
2023-09-14T02:46:28.529Z,1.40
2023-09-14T02:48:57.721Z,1.60
2023-09-14T02:51:27.190Z,1.52
2023-09-14T02:53:56.391Z,2.13
2023-09-14T02:56:25.789Z,2.15
2023-09-14T02:58:55.291Z,1.33
2023-09-14T03:01:26.262Z,1.58
2023-09-14T03:03:55.579Z,1.60
2023-09-14T03:06:25.406Z,1.70
2023-09-14T03:08:54.680Z,1.60
2023-09-14T03:11:24.258Z,1.15
2023-09-14T03:13:53.499Z,1.70
2023-09-14T03:16:23.474Z,1.65
2023-09-14T03:18:54.401Z,1.48
2023-09-14T03:21:25.433Z,1.75
2023-09-14T03:23:55.250Z,1.75
2023-09-14T03:26:28.955Z,1.52
2023-09-14T03:28:59.004Z,2.20
2023-09-14T03:31:30.044Z,1.65
2023-09-14T03:34:00.128Z,1.73
2023-09-14T03:36:31.894Z,1.80
2023-09-14T03:39:01.349Z,1.75
2023-09-14T03:41:35.777Z,3.15
2023-09-14T03:44:05.203Z,1.60
2023-09-14T03:46:34.810Z,1.52
2023-09-14T03:49:08.200Z,1.52
2023-09-14T03:51:38.013Z,1.40
2023-09-14T03:54:10.112Z,1.90
2023-09-14T03:56:42.340Z,1.90
2023-09-14T03:59:11.631Z,1.70
2023-09-14T04:01:41.149Z,2.17
2023-09-14T04:04:11.865Z,1.27
2023-09-14T04:06:41.625Z,1.27
2023-09-14T04:09:11.054Z,2.10
2023-09-14T04:11:40.723Z,1.67
2023-09-14T04:14:09.865Z,1.67
2023-09-14T04:16:39.616Z,1.40
2023-09-14T04:19:10.305Z,1.20
2023-09-14T04:21:40.950Z,1.92
2023-09-14T04:24:10.898Z,1.40
2023-09-14T04:26:40.327Z,1.92
2023-09-14T04:29:09.650Z,1.48
2023-09-14T04:31:39.402Z,1.27
2023-09-14T04:34:10.141Z,1.20
2023-09-14T04:36:39.810Z,2.00
2023-09-14T04:41:39.491Z,1.50
2023-09-14T04:44:08.817Z,1.52
2023-09-14T04:46:38.719Z,1.58
2023-09-14T04:49:08.251Z,1.42
2023-09-14T04:51:39.100Z,2.10
2023-09-14T04:54:08.542Z,1.50
2023-09-14T04:56:38.025Z,2.13
2023-09-14T05:04:06.143Z,1.67
2023-09-14T05:06:35.972Z,1.73
2023-09-14T05:09:06.948Z,1.45
2023-09-14T05:11:36.514Z,1.90
2023-09-14T05:14:05.922Z,1.80
2023-09-14T05:16:35.366Z,1.60
2023-09-14T05:21:36.555Z,2.40
2023-09-14T05:24:07.877Z,1.67
2023-09-14T05:26:37.416Z,1.83
2023-09-14T05:31:35.907Z,1.67
2023-09-14T05:34:06.395Z,2.40
2023-09-14T05:36:36.279Z,2.30
2023-09-14T05:39:08.941Z,2.20
2023-09-14T05:41:41.633Z,1.77
2023-09-14T05:44:11.570Z,2.10
2023-09-14T05:46:42.277Z,1.83
2023-09-14T05:49:12.163Z,2.28
2023-09-14T05:51:41.745Z,1.80
2023-09-14T05:54:12.377Z,2.25
2023-09-14T05:56:41.978Z,1.50
2023-09-14T05:59:25.450Z,1.48
2023-09-14T06:02:00.522Z,1.50
2023-09-14T06:04:29.929Z,1.65
2023-09-14T06:06:59.640Z,1.45
2023-09-14T06:09:31.035Z,1.38
2023-09-14T06:12:02.481Z,1.80
2023-09-14T06:14:31.824Z,1.50
2023-09-14T06:17:02.029Z,1.83
2023-09-14T06:19:31.624Z,1.70
2023-09-14T06:22:03.602Z,1.80
2023-09-14T06:24:34.240Z,1.45
2023-09-14T06:27:03.967Z,1.50
2023-09-14T06:29:33.324Z,1.67
2023-09-14T06:32:03.429Z,1.30
2023-09-14T06:34:32.620Z,1.40
2023-09-14T06:37:02.023Z,2.03
2023-09-14T06:39:31.202Z,2.30
2023-09-14T06:42:02.084Z,1.90
2023-09-14T06:44:31.536Z,1.65
2023-09-14T06:47:02.733Z,1.80
2023-09-14T06:49:32.299Z,2.00
2023-09-14T06:52:02.132Z,2.35
2023-09-14T06:54:31.795Z,1.83
2023-09-14T06:57:03.532Z,2.58
2023-09-14T06:59:33.753Z,1.85
2023-09-14T07:02:03.768Z,1.80
2023-09-14T07:04:33.234Z,1.60
2023-09-14T07:07:02.986Z,1.70
2023-09-14T07:09:32.494Z,2.42
2023-09-14T07:12:04.608Z,1.52
2023-09-14T07:14:33.798Z,1.55
2023-09-14T07:17:03.582Z,1.60
2023-09-14T07:19:32.710Z,1.40
2023-09-14T07:22:02.280Z,1.58
2023-09-14T07:24:34.112Z,1.67
2023-09-14T07:27:05.361Z,1.45
2023-09-14T07:29:34.630Z,1.60
2023-09-14T07:32:04.915Z,1.55
2023-09-14T07:34:34.122Z,1.50
2023-09-14T07:37:04.208Z,1.92
2023-09-14T07:39:33.533Z,1.60
2023-09-14T07:42:04.431Z,1.15
2023-09-14T07:44:33.685Z,1.30
2023-09-14T07:47:03.557Z,1.58
2023-09-14T07:49:32.833Z,1.70
2023-09-14T07:52:02.313Z,2.00
2023-09-14T07:54:35.728Z,1.35
2023-09-14T07:57:06.955Z,1.30
2023-09-14T07:59:36.273Z,2.22
2023-09-14T08:02:05.956Z,1.63
2023-09-14T08:04:35.272Z,1.80
2023-09-14T08:07:05.097Z,1.80
2023-09-14T08:09:34.694Z,1.70
2023-09-14T08:12:06.154Z,2.13
2023-09-14T08:14:35.918Z,2.28
2023-09-14T08:17:05.473Z,1.90
2023-09-14T08:19:34.670Z,1.52
2023-09-14T08:22:05.052Z,1.33
2023-09-14T08:24:34.255Z,2.05
2023-09-14T08:27:03.677Z,1.80
2023-09-14T08:29:34.300Z,1.73
2023-09-14T08:32:06.988Z,1.80
2023-09-14T08:34:36.330Z,1.70
2023-09-14T08:37:08.648Z,1.98
2023-09-14T08:39:38.052Z,1.60
2023-09-14T08:42:07.758Z,2.25
2023-09-14T08:44:41.103Z,1.33
2023-09-14T08:47:12.321Z,1.83
2023-09-14T08:49:44.218Z,1.70
2023-09-14T08:52:17.934Z,1.67
2023-09-14T08:54:49.571Z,1.80
2023-09-14T08:57:19.130Z,2.08
2023-09-14T08:59:49.657Z,1.92
2023-09-14T09:02:20.733Z,2.70
2023-09-14T09:04:50.073Z,1.55
2023-09-14T09:07:19.744Z,1.30
2023-09-14T09:09:51.653Z,1.58
2023-09-14T09:12:21.466Z,1.75
2023-09-14T09:14:53.313Z,1.67
2023-09-14T09:17:22.773Z,2.13
2023-09-14T09:19:54.516Z,1.42
2023-09-14T09:22:24.341Z,1.75
2023-09-14T09:24:58.726Z,1.45
2023-09-14T09:27:28.351Z,1.98
2023-09-14T09:30:01.997Z,2.17
2023-09-14T09:32:34.297Z,1.50
2023-09-14T09:35:19.862Z,1.60
2023-09-14T09:37:49.972Z,1.98
2023-09-14T09:40:21.042Z,1.70
2023-09-14T09:42:51.325Z,1.70
2023-09-14T09:45:24.635Z,2.53
2023-09-14T09:47:55.856Z,1.70
2023-09-14T09:50:26.907Z,1.20
2023-09-14T09:52:56.729Z,1.60
2023-09-14T09:55:29.101Z,1.90
2023-09-14T09:57:59.767Z,1.30
2023-09-14T10:00:34.561Z,1.48
2023-09-14T10:03:04.560Z,1.88
2023-09-14T10:05:35.598Z,1.63
2023-09-14T10:08:05.652Z,1.88
2023-09-14T10:10:35.896Z,1.75
2023-09-14T10:13:08.130Z,3.13
2023-09-14T10:15:39.248Z,1.75
2023-09-14T10:18:09.236Z,1.80
2023-09-14T10:20:39.077Z,1.65
2023-09-14T10:23:10.687Z,1.63
2023-09-14T10:25:41.430Z,1.88
2023-09-14T10:28:13.232Z,1.50
2023-09-14T10:30:45.817Z,2.15
2023-09-14T10:33:16.194Z,1.20
2023-09-14T10:35:46.035Z,1.92
2023-09-14T10:38:16.632Z,1.75
2023-09-14T10:40:48.838Z,1.77
2023-09-14T10:43:18.492Z,1.65
2023-09-14T10:45:50.474Z,1.30
2023-09-14T10:48:30.415Z,1.90
2023-09-14T10:51:02.992Z,1.77
2023-09-14T10:53:33.061Z,2.03
2023-09-14T10:56:02.311Z,2.05
2023-09-14T10:58:42.615Z,1.30
2023-09-14T11:01:24.256Z,1.92
2023-09-14T11:04:11.782Z,1.90
2023-09-14T11:06:46.171Z,1.63
2023-09-14T11:09:16.889Z,2.58
2023-09-14T11:11:49.471Z,1.63
2023-09-14T11:14:22.107Z,1.67
2023-09-14T11:16:57.205Z,1.70
2023-09-14T11:19:54.788Z,1.90
2023-09-14T11:22:29.156Z,2.03
2023-09-14T11:25:00.454Z,2.03
2023-09-14T11:27:36.742Z,1.55
2023-09-14T11:30:16.747Z,1.70
2023-09-14T11:32:48.786Z,1.40
2023-09-14T11:35:21.849Z,1.45
2023-09-14T11:37:55.292Z,1.90
2023-09-14T11:40:35.901Z,1.83
2023-09-14T11:46:05.710Z,1.58
2023-09-14T11:51:13.053Z,1.52
2023-09-14T11:53:43.631Z,1.55
2023-09-14T11:56:14.595Z,1.83
2023-09-14T11:58:44.452Z,2.00
2023-09-14T12:01:14.049Z,1.45
2023-09-14T12:03:45.186Z,1.92
2023-09-14T12:06:15.434Z,1.63
2023-09-14T12:08:51.834Z,1.77
2023-09-14T12:11:23.323Z,2.03
2023-09-14T12:13:53.581Z,1.92
2023-09-14T12:16:25.038Z,1.77
2023-09-14T12:18:57.116Z,2.03
2023-09-14T12:21:26.859Z,3.05
2023-09-14T12:23:59.551Z,1.83
2023-09-14T12:26:29.388Z,1.70
2023-09-14T12:29:01.082Z,1.75
2023-09-14T12:31:33.049Z,2.33
2023-09-14T12:34:04.952Z,2.25
2023-09-14T12:36:34.824Z,2.28
2023-09-14T12:39:13.336Z,1.80
2023-09-14T12:44:12.555Z,1.35
2023-09-14T12:46:42.072Z,1.60
2023-09-14T12:49:17.112Z,1.20
2023-09-14T12:51:49.995Z,1.88
2023-09-14T12:54:25.003Z,1.92
2023-09-14T12:56:54.630Z,1.73
2023-09-14T12:59:24.006Z,1.48
2023-09-14T13:01:54.047Z,1.35
2023-09-14T13:04:24.786Z,1.60
2023-09-14T13:06:54.365Z,1.33
2023-09-14T13:09:23.703Z,1.50
2023-09-14T13:11:58.364Z,1.48
2023-09-14T13:14:29.008Z,1.98
2023-09-14T13:16:59.666Z,1.67
2023-09-14T13:19:30.308Z,1.92
2023-09-14T13:22:07.294Z,1.58
2023-09-14T13:24:36.574Z,1.65
2023-09-14T13:27:06.511Z,1.55
2023-09-14T13:29:35.824Z,1.67
2023-09-14T13:32:06.009Z,1.60
2023-09-14T13:34:37.594Z,1.40
2023-09-14T13:37:08.265Z,2.03
2023-09-14T13:39:37.440Z,1.85
2023-09-14T13:42:07.195Z,2.00
2023-09-14T13:44:38.065Z,1.80
2023-09-14T13:47:07.524Z,1.50
2023-09-14T13:49:37.957Z,1.73
2023-09-14T13:52:08.061Z,1.55
2023-09-14T13:54:37.202Z,1.50
2023-09-14T13:57:08.599Z,1.50
2023-09-14T13:59:37.908Z,1.50
2023-09-14T14:02:07.341Z,2.05
2023-09-14T14:04:38.133Z,1.48
2023-09-14T14:07:07.889Z,1.75
2023-09-14T14:09:37.182Z,1.42
2023-09-14T14:12:07.524Z,1.52
2023-09-14T14:14:37.934Z,1.58
2023-09-14T14:17:08.214Z,1.92
2023-09-14T14:19:38.960Z,1.40
2023-09-14T14:22:08.696Z,1.35
2023-09-14T14:24:37.968Z,1.63
2023-09-14T14:27:07.773Z,1.55
2023-09-14T14:29:37.088Z,1.80
2023-09-14T14:32:07.598Z,1.40
2023-09-14T14:34:38.338Z,1.23
2023-09-14T14:37:07.993Z,1.00
2023-09-14T14:39:37.579Z,1.95
2023-09-14T14:42:07.510Z,1.42
2023-09-14T14:44:36.651Z,1.20
2023-09-14T14:47:06.486Z,1.40
2023-09-14T14:49:37.039Z,2.22
2023-09-14T14:52:07.070Z,1.70
2023-09-14T14:54:37.192Z,1.42
2023-09-14T14:57:07.178Z,1.30
2023-09-14T14:59:36.748Z,1.83
2023-09-14T15:02:07.109Z,1.65
2023-09-14T15:04:40.135Z,1.67
2023-09-14T15:07:12.159Z,2.33
2023-09-14T15:09:41.516Z,1.50
2023-09-14T15:12:11.216Z,1.27
2023-09-14T15:14:40.515Z,1.75
2023-09-14T15:17:09.825Z,1.80
2023-09-14T15:19:41.333Z,1.92
2023-09-14T15:22:10.825Z,2.22
2023-09-14T15:24:40.380Z,1.38
2023-09-14T15:27:09.826Z,1.27
2023-09-14T15:29:39.229Z,1.40
2023-09-14T15:32:08.704Z,1.33
2023-09-14T15:34:39.150Z,1.52
2023-09-14T15:37:08.991Z,1.35
2023-09-14T15:39:40.155Z,1.10
2023-09-14T15:42:10.838Z,1.60
2023-09-14T15:44:47.730Z,2.53
2023-09-14T15:47:17.201Z,1.40
2023-09-14T15:49:48.666Z,1.50
2023-09-14T15:52:18.232Z,1.25
2023-09-14T15:54:47.352Z,1.23
2023-09-14T15:57:16.711Z,1.60
2023-09-14T15:59:45.899Z,1.77
2023-09-14T16:02:15.711Z,1.35
2023-09-14T16:04:46.177Z,1.25
2023-09-14T16:07:15.663Z,1.20
2023-09-14T16:09:45.046Z,1.35
2023-09-14T16:12:14.689Z,1.70
2023-09-14T16:14:43.963Z,1.50
2023-09-14T16:17:13.917Z,1.50
2023-09-14T16:19:43.022Z,1.77
2023-09-14T16:22:13.998Z,1.20
2023-09-14T16:24:43.206Z,1.33
2023-09-14T16:27:12.942Z,1.38
2023-09-14T16:29:42.120Z,1.40
2023-09-14T16:32:12.594Z,1.30
2023-09-14T16:34:41.710Z,1.85
2023-09-14T16:37:12.585Z,2.22
2023-09-14T16:39:41.858Z,1.65
2023-09-14T16:42:11.254Z,2.08
2023-09-14T16:44:40.386Z,1.35
2023-09-14T16:47:09.738Z,1.65
2023-09-14T16:49:39.096Z,1.58
2023-09-14T16:52:08.660Z,1.35
2023-09-14T16:54:39.396Z,1.67
2023-09-14T16:57:08.889Z,2.08
2023-09-14T16:59:39.224Z,1.30
2023-09-14T17:02:10.616Z,1.05
2023-09-14T17:04:42.348Z,1.50
2023-09-14T17:07:11.932Z,1.50
2023-09-14T17:09:42.826Z,1.40
2023-09-14T17:12:13.392Z,1.70
2023-09-14T17:14:43.866Z,2.47
2023-09-14T17:17:13.710Z,1.42
2023-09-14T17:19:42.943Z,1.98
2023-09-14T17:22:14.013Z,1.55
2023-09-14T17:24:44.817Z,1.75
2023-09-14T17:27:14.607Z,2.40
2023-09-14T17:29:43.707Z,1.40
2023-09-14T17:32:14.186Z,1.67
2023-09-14T17:34:43.592Z,1.83
2023-09-14T17:37:13.013Z,1.60
2023-09-14T17:39:43.662Z,1.60
2023-09-14T17:42:13.177Z,2.38
2023-09-14T17:47:12.224Z,1.60
2023-09-14T17:52:11.438Z,1.60
2023-09-14T17:54:41.063Z,1.50
2023-09-14T17:57:12.054Z,2.03
2023-09-14T17:59:41.335Z,2.10
2023-09-14T18:02:11.356Z,1.70
2023-09-14T18:04:43.300Z,2.60
2023-09-14T18:07:12.823Z,2.20
2023-09-14T18:12:12.735Z,1.90
2023-09-14T18:14:42.102Z,2.15
2023-09-14T18:17:12.268Z,3.55
2023-09-14T18:19:42.104Z,2.28
2023-09-14T18:22:13.916Z,1.88
2023-09-14T18:27:14.612Z,1.55
2023-09-14T18:29:43.921Z,1.90
2023-09-14T18:32:13.502Z,1.73
2023-09-14T18:34:44.248Z,2.00
2023-09-14T18:37:15.315Z,1.70
2023-09-14T18:39:44.675Z,2.05
2023-09-14T18:42:15.719Z,2.22
2023-09-14T18:44:45.381Z,2.53
2023-09-14T18:47:14.769Z,2.97
2023-09-14T18:52:14.701Z,2.42
2023-09-14T18:54:43.944Z,3.33
2023-09-14T18:57:14.909Z,3.38
2023-09-14T18:59:44.307Z,2.55
2023-09-14T19:02:14.782Z,3.08
2023-09-14T19:04:45.320Z,2.55
2023-09-14T19:07:15.021Z,3.63
2023-09-14T19:09:45.488Z,4.80
2023-09-14T19:12:18.039Z,4.18
2023-09-14T19:14:47.173Z,5.13
2023-09-14T19:17:17.913Z,3.83
2023-09-14T19:19:48.910Z,5.10
2023-09-14T19:22:18.471Z,4.75
2023-09-14T19:24:47.707Z,5.05
2023-09-14T19:27:18.649Z,4.32
2023-09-14T19:29:47.838Z,5.00
2023-09-14T19:32:17.267Z,4.47
2023-09-14T19:37:15.602Z,4.82
2023-09-14T19:39:48.539Z,4.47
2023-09-14T19:42:19.820Z,4.55
2023-09-14T19:44:48.977Z,4.47
2023-09-14T19:47:18.609Z,4.93
2023-09-14T19:49:47.689Z,4.90
2023-09-14T19:52:17.621Z,4.22
2023-09-14T19:54:46.708Z,4.45
2023-09-14T19:59:46.450Z,4.43
2023-09-14T20:02:17.087Z,4.38
2023-09-14T20:04:46.529Z,4.20
2023-09-14T20:07:15.982Z,3.88
2023-09-14T20:12:17.884Z,3.55
2023-09-14T20:14:48.649Z,4.20
2023-09-14T20:17:19.324Z,4.22
2023-09-14T20:19:48.748Z,4.50
2023-09-14T20:22:18.226Z,4.55
2023-09-14T20:24:49.188Z,4.68
2023-09-14T20:27:18.700Z,3.97
2023-09-14T20:29:49.283Z,4.13
2023-09-14T20:32:18.845Z,3.53
2023-09-14T20:34:47.967Z,3.30
2023-09-14T20:37:17.724Z,4.38
2023-09-14T20:42:19.278Z,4.55
2023-09-14T20:44:49.826Z,3.78
2023-09-14T20:47:23.585Z,3.55
2023-09-14T20:49:53.286Z,4.57
2023-09-14T20:52:24.111Z,3.95
2023-09-14T20:54:53.398Z,3.22
2023-09-14T20:57:22.823Z,3.53
2023-09-14T20:59:53.873Z,3.83
2023-09-14T21:02:23.265Z,3.53
2023-09-14T21:04:54.352Z,4.32
2023-09-14T21:07:23.955Z,4.00
2023-09-14T21:09:53.446Z,3.28
2023-09-14T21:12:22.826Z,3.55
2023-09-14T21:14:53.393Z,3.42
2023-09-14T21:17:23.228Z,3.60
2023-09-14T21:19:56.690Z,3.55
2023-09-14T21:22:27.323Z,3.65
2023-09-14T21:24:59.535Z,4.00
2023-09-14T21:27:29.573Z,3.00
2023-09-14T21:30:00.212Z,3.63
2023-09-14T21:32:30.213Z,3.45
2023-09-14T21:34:59.436Z,3.85
2023-09-14T21:39:57.945Z,2.85
2023-09-14T21:44:56.506Z,3.78
2023-09-14T21:47:27.692Z,3.85
2023-09-14T21:49:57.390Z,3.30
2023-09-14T21:52:28.282Z,2.92
2023-09-14T21:54:57.552Z,3.60
2023-09-14T21:59:56.034Z,3.30
2023-09-14T22:04:59.531Z,3.70
2023-09-14T22:07:29.315Z,3.85
2023-09-14T22:09:58.519Z,3.45
2023-09-14T22:12:28.261Z,3.35
2023-09-14T22:14:57.371Z,4.28
2023-09-14T22:19:57.812Z,3.95
2023-09-14T22:24:58.262Z,3.13
2023-09-14T22:27:28.963Z,3.88
2023-09-14T22:29:58.202Z,3.22
2023-09-14T22:34:58.363Z,3.05
2023-09-14T22:40:09.737Z,3.35
2023-09-14T22:42:39.992Z,3.58
2023-09-14T22:45:10.957Z,4.05
2023-09-14T22:47:41.884Z,3.90
2023-09-14T22:50:11.713Z,3.60
2023-09-14T22:52:41.304Z,3.47
2023-09-14T22:55:13.763Z,3.85
2023-09-14T22:57:43.702Z,3.55
2023-09-14T23:00:14.143Z,3.67
2023-09-14T23:02:45.237Z,3.35
2023-09-14T23:05:14.734Z,3.75
2023-09-14T23:10:15.287Z,4.10
2023-09-14T23:12:44.952Z,3.60
2023-09-14T23:17:45.372Z,3.28
2023-09-14T23:20:25.487Z,4.68
2023-09-14T23:22:57.759Z,4.03
2023-09-14T23:25:27.294Z,3.80
2023-09-14T23:27:56.901Z,3.38
2023-09-14T23:32:59.225Z,3.47
2023-09-14T23:35:28.625Z,3.45
2023-09-14T23:37:58.019Z,3.63
2023-09-14T23:40:34.296Z,3.63
2023-09-14T23:43:06.032Z,3.42
2023-09-14T23:45:35.247Z,3.33
2023-09-14T23:48:08.710Z,3.55
2023-09-14T23:50:37.991Z,4.00
2023-09-14T23:55:36.252Z,4.40
